createdAt,value
2022-08-03T00:00:32.233Z,0
2022-08-03T00:01:32.154Z,0
2022-08-03T00:02:32.166Z,0
2022-08-03T00:03:32.312Z,0
2022-08-03T00:04:34.233Z,0
2022-08-03T00:05:32.130Z,0
2022-08-03T00:06:36.821Z,0
2022-08-03T00:07:32.174Z,0
2022-08-03T00:08:32.141Z,0
2022-08-03T00:09:35.495Z,0
2022-08-03T00:10:32.189Z,0
2022-08-03T00:11:32.135Z,0
2022-08-03T00:12:32.234Z,0
2022-08-03T00:13:32.144Z,0
2022-08-03T00:14:32.137Z,0
2022-08-03T00:15:32.140Z,0
2022-08-03T00:16:32.125Z,0
2022-08-03T00:17:52.607Z,0
2022-08-03T00:18:32.174Z,0
2022-08-03T00:19:32.113Z,0
2022-08-03T00:20:32.134Z,0
2022-08-03T00:21:32.171Z,0
2022-08-03T00:22:32.137Z,0
2022-08-03T00:23:50.831Z,0
2022-08-03T00:24:32.336Z,0
2022-08-03T00:25:32.136Z,0
2022-08-03T00:26:32.127Z,0
2022-08-03T00:27:32.569Z,0
2022-08-03T00:28:32.125Z,0
2022-08-03T00:29:32.126Z,0
2022-08-03T00:30:32.155Z,0
2022-08-03T00:31:44.941Z,0
2022-08-03T00:32:32.167Z,0
2022-08-03T00:33:32.153Z,0
2022-08-03T00:34:57.965Z,0
2022-08-03T00:35:37.142Z,0
2022-08-03T00:36:32.870Z,0
2022-08-03T00:37:40.962Z,0
2022-08-03T00:38:32.191Z,0
2022-08-03T00:39:32.147Z,0
2022-08-03T00:40:32.142Z,0
2022-08-03T00:41:32.129Z,0
2022-08-03T00:42:32.129Z,0
2022-08-03T00:43:32.174Z,0
2022-08-03T00:44:32.139Z,0
2022-08-03T00:45:32.095Z,0
2022-08-03T00:46:32.140Z,0
2022-08-03T00:47:32.142Z,0
2022-08-03T00:48:33.645Z,0
2022-08-03T00:49:32.166Z,0
2022-08-03T00:50:32.155Z,0
2022-08-03T00:51:32.159Z,0
2022-08-03T00:52:32.151Z,0
2022-08-03T00:53:32.544Z,0
2022-08-03T00:54:32.175Z,0
2022-08-03T00:55:32.147Z,0
2022-08-03T00:56:32.141Z,0
2022-08-03T00:57:32.094Z,0
2022-08-03T00:58:32.257Z,0
2022-08-03T00:59:32.136Z,0
2022-08-03T01:00:32.162Z,0
2022-08-03T01:01:32.707Z,0
2022-08-03T01:02:32.135Z,0
2022-08-03T01:03:32.150Z,0
2022-08-03T01:04:33.157Z,0
2022-08-03T01:05:32.130Z,0
2022-08-03T01:06:32.212Z,0
2022-08-03T01:07:32.158Z,0
2022-08-03T01:08:32.120Z,0
2022-08-03T01:09:32.126Z,0
2022-08-03T01:10:32.132Z,0
2022-08-03T01:11:32.157Z,0
2022-08-03T01:12:32.165Z,0
2022-08-03T01:14:01.462Z,0
2022-08-03T01:14:32.223Z,0
2022-08-03T01:15:32.131Z,0
2022-08-03T01:16:36.704Z,0
2022-08-03T01:17:32.131Z,0
2022-08-03T01:18:32.141Z,0
2022-08-03T01:19:32.192Z,0
2022-08-03T01:20:32.142Z,0
2022-08-03T01:21:32.105Z,0
2022-08-03T01:22:32.444Z,0
2022-08-03T01:23:32.125Z,0
2022-08-03T01:24:32.160Z,0
2022-08-03T01:25:32.132Z,0
2022-08-03T01:26:32.630Z,0
2022-08-03T01:27:32.106Z,0
2022-08-03T01:28:32.163Z,0
2022-08-03T01:29:32.162Z,0
2022-08-03T01:30:32.126Z,0
2022-08-03T01:31:32.116Z,0
2022-08-03T01:32:58.360Z,0
2022-08-03T01:33:32.214Z,0
2022-08-03T01:34:32.150Z,0
2022-08-03T01:35:32.113Z,0
2022-08-03T01:36:32.163Z,0
2022-08-03T01:37:32.155Z,0
2022-08-03T01:38:32.146Z,0
2022-08-03T01:39:32.205Z,0
2022-08-03T01:40:32.348Z,0
2022-08-03T01:41:32.303Z,0
2022-08-03T01:42:32.402Z,0
2022-08-03T01:44:26.193Z,0
2022-08-03T01:44:32.324Z,0
2022-08-03T01:45:34.156Z,0
2022-08-03T01:46:32.231Z,0
2022-08-03T01:47:32.220Z,0
2022-08-03T01:48:32.108Z,0
2022-08-03T01:49:32.233Z,0
2022-08-03T01:50:32.229Z,0
2022-08-03T01:52:04.119Z,0
2022-08-03T01:52:32.171Z,0
2022-08-03T01:53:32.208Z,0
2022-08-03T01:54:32.141Z,0
2022-08-03T01:55:32.118Z,0
2022-08-03T01:56:32.145Z,0
2022-08-03T01:57:32.140Z,0
2022-08-03T01:58:32.115Z,0
2022-08-03T01:59:32.124Z,0
2022-08-03T02:00:32.154Z,0
2022-08-03T02:02:32.270Z,0
2022-08-03T02:02:34.499Z,0
2022-08-03T02:03:32.189Z,0
2022-08-03T02:04:32.108Z,0
2022-08-03T02:05:32.164Z,0
2022-08-03T02:07:00.816Z,0
2022-08-03T02:07:32.260Z,0
2022-08-03T02:08:32.152Z,0
2022-08-03T02:09:32.163Z,0
2022-08-03T02:10:35.276Z,0
2022-08-03T02:11:32.115Z,0
2022-08-03T02:12:32.322Z,0
2022-08-03T02:13:32.122Z,0
2022-08-03T02:14:32.119Z,0
2022-08-03T02:15:32.825Z,0
2022-08-03T02:16:32.193Z,0
2022-08-03T02:17:39.124Z,0
2022-08-03T02:18:32.115Z,0
2022-08-03T02:19:35.615Z,0
2022-08-03T02:20:32.234Z,0
2022-08-03T02:21:57.091Z,0
2022-08-03T02:22:32.231Z,0
2022-08-03T02:23:32.155Z,0
2022-08-03T02:24:32.125Z,0
2022-08-03T02:25:32.140Z,0
2022-08-03T02:26:32.185Z,0
2022-08-03T02:27:32.355Z,0
2022-08-03T02:28:32.263Z,0
2022-08-03T02:29:39.368Z,0
2022-08-03T02:30:32.108Z,0
2022-08-03T02:31:32.254Z,0
2022-08-03T02:32:32.111Z,0
2022-08-03T02:33:32.128Z,0
2022-08-03T02:34:32.116Z,0
2022-08-03T02:35:32.176Z,0
2022-08-03T02:36:32.096Z,0
2022-08-03T02:37:32.125Z,0
2022-08-03T02:38:32.134Z,0
2022-08-03T02:39:32.139Z,0
2022-08-03T02:40:32.218Z,0
2022-08-03T02:41:32.123Z,0
2022-08-03T02:42:32.109Z,0
2022-08-03T02:43:41.257Z,0
2022-08-03T02:44:32.187Z,0
2022-08-03T02:45:32.140Z,0
2022-08-03T02:46:32.109Z,0
2022-08-03T02:47:53.295Z,0
2022-08-03T02:48:32.189Z,0
2022-08-03T02:49:41.037Z,0
2022-08-03T02:50:32.146Z,0
2022-08-03T02:51:32.119Z,0
2022-08-03T02:52:32.095Z,0
2022-08-03T02:53:32.105Z,0
2022-08-03T02:54:32.110Z,0
2022-08-03T02:55:32.117Z,0
2022-08-03T02:56:32.125Z,0
2022-08-03T02:57:32.143Z,0
2022-08-03T02:58:32.080Z,0
2022-08-03T02:59:32.110Z,0
2022-08-03T03:00:32.304Z,0
2022-08-03T03:01:32.207Z,0
2022-08-03T03:02:32.123Z,0
2022-08-03T03:03:33.859Z,0
2022-08-03T03:04:33.252Z,0
2022-08-03T03:05:54.897Z,0
2022-08-03T03:06:32.279Z,0
2022-08-03T03:07:33.922Z,0
2022-08-03T03:08:32.139Z,0
2022-08-03T03:09:40.189Z,0
2022-08-03T03:10:32.223Z,0
2022-08-03T03:11:32.251Z,0.36
2022-08-03T03:12:32.263Z,0.36
2022-08-03T03:13:32.221Z,0.36
2022-08-03T03:14:33.542Z,0.85
2022-08-03T03:15:32.225Z,1.71
2022-08-03T03:16:32.352Z,1.22
2022-08-03T03:17:32.213Z,2.08
2022-08-03T03:18:32.233Z,2.57
2022-08-03T03:19:32.346Z,2.94
2022-08-03T03:20:32.128Z,2.57
2022-08-03T03:21:32.295Z,3.43
2022-08-03T03:22:32.175Z,3.43
2022-08-03T03:23:32.367Z,3.79
2022-08-03T03:24:32.322Z,4.77
2022-08-03T03:25:32.218Z,4.77
2022-08-03T03:26:32.286Z,4.77
2022-08-03T03:27:32.158Z,5.63
2022-08-03T03:28:32.123Z,5.99
2022-08-03T03:29:32.123Z,6.48
2022-08-03T03:30:32.105Z,5.63
2022-08-03T03:31:32.100Z,6.48
2022-08-03T03:32:32.260Z,6.48
2022-08-03T03:33:32.146Z,6.48
2022-08-03T03:34:32.324Z,5.99
2022-08-03T03:35:32.124Z,5.99
2022-08-03T03:36:32.139Z,5.99
2022-08-03T03:37:32.242Z,7.7
2022-08-03T03:38:32.140Z,6.85
2022-08-03T03:39:32.094Z,5.63
2022-08-03T03:40:32.199Z,6.48
2022-08-03T03:41:33.900Z,6.85
2022-08-03T03:42:32.263Z,7.7
2022-08-03T03:43:32.115Z,8.56
2022-08-03T03:44:32.230Z,9.54
2022-08-03T03:45:32.745Z,9.54
2022-08-03T03:46:32.175Z,9.54
2022-08-03T03:47:32.970Z,7.7
2022-08-03T03:48:32.322Z,7.7
2022-08-03T03:49:32.188Z,7.7
2022-08-03T03:50:32.083Z,8.19
2022-08-03T03:51:32.102Z,8.56
2022-08-03T03:52:32.120Z,8.56
2022-08-03T03:53:32.094Z,8.19
2022-08-03T03:54:32.120Z,8.56
2022-08-03T03:55:32.132Z,8.56
2022-08-03T03:56:32.115Z,9.91
2022-08-03T03:57:32.124Z,10.39
2022-08-03T03:58:32.132Z,10.39
2022-08-03T03:59:32.130Z,10.77
2022-08-03T04:00:32.284Z,12.48
2022-08-03T04:01:32.132Z,12.48
2022-08-03T04:02:32.458Z,11.25
2022-08-03T04:03:32.092Z,10.77
2022-08-03T04:04:32.124Z,10.77
2022-08-03T04:05:32.115Z,10.39
2022-08-03T04:06:32.219Z,10.39
2022-08-03T04:07:32.107Z,10.39
2022-08-03T04:08:32.174Z,11.25
2022-08-03T04:09:32.125Z,12.48
2022-08-03T04:10:32.092Z,13.82
2022-08-03T04:11:32.230Z,18.6
2022-08-03T04:12:32.237Z,22.51
2022-08-03T04:13:32.116Z,24.22
2022-08-03T04:14:32.176Z,25.56
2022-08-03T04:15:32.110Z,26.79
2022-08-03T04:16:32.198Z,26.42
2022-08-03T04:17:32.115Z,24.71
2022-08-03T04:18:32.673Z,24.71
2022-08-03T04:19:32.111Z,23.85
2022-08-03T04:20:32.107Z,21.16
2022-08-03T04:21:32.123Z,25.07
2022-08-03T04:22:32.102Z,26.79
2022-08-03T04:23:32.118Z,28.14
2022-08-03T04:24:32.119Z,31.19
2022-08-03T04:25:32.107Z,32.42
2022-08-03T04:26:32.224Z,35.48
2022-08-03T04:27:32.102Z,35.11
2022-08-03T04:28:32.199Z,34.25
2022-08-03T04:29:32.104Z,35.11
2022-08-03T04:30:32.120Z,36.33
2022-08-03T04:31:32.220Z,34.25
2022-08-03T04:32:32.103Z,33.76
2022-08-03T04:33:32.333Z,32.05
2022-08-03T04:34:32.152Z,29.85
2022-08-03T04:36:02.266Z,30.34
2022-08-03T04:36:32.198Z,29.48
2022-08-03T04:37:32.141Z,27.65
2022-08-03T04:38:32.127Z,25.56
2022-08-03T04:39:32.135Z,24.71
2022-08-03T04:40:32.143Z,26.42
2022-08-03T04:41:32.115Z,28.63
2022-08-03T04:42:32.155Z,30.7
2022-08-03T04:43:32.603Z,33.39
2022-08-03T04:44:32.119Z,35.48
2022-08-03T04:45:32.109Z,40.24
2022-08-03T04:46:32.211Z,44.16
2022-08-03T04:47:32.164Z,45.51
2022-08-03T04:48:32.128Z,48.93
2022-08-03T04:49:32.180Z,49.42
2022-08-03T04:50:32.115Z,51.14
2022-08-03T04:51:32.114Z,46.73
2022-08-03T04:52:32.246Z,46.36
2022-08-03T04:53:32.138Z,41.1
2022-08-03T04:54:32.093Z,32.9
2022-08-03T04:55:32.085Z,25.94
2022-08-03T04:56:32.189Z,24.71
2022-08-03T04:57:32.110Z,24.22
2022-08-03T04:58:32.115Z,24.22
2022-08-03T04:59:32.077Z,22.87
2022-08-03T05:00:32.113Z,25.07
2022-08-03T05:01:32.184Z,25.56
2022-08-03T05:02:32.384Z,26.42
2022-08-03T05:03:32.098Z,27.28
2022-08-03T05:04:32.144Z,27.28
2022-08-03T05:05:37.831Z,26.79
2022-08-03T05:06:32.188Z,28.14
2022-08-03T05:07:36.144Z,29.48
2022-08-03T05:08:32.099Z,27.65
2022-08-03T05:09:50.796Z,27.65
2022-08-03T05:10:32.245Z,27.65
2022-08-03T05:11:32.144Z,28.14
2022-08-03T05:12:33.071Z,28.14
2022-08-03T05:13:32.086Z,28.14
2022-08-03T05:14:32.137Z,28.63
2022-08-03T05:15:32.206Z,30.34
2022-08-03T05:16:32.258Z,31.19
2022-08-03T05:17:32.289Z,30.34
2022-08-03T05:18:32.117Z,29.85
2022-08-03T05:19:32.090Z,32.42
2022-08-03T05:20:32.105Z,35.97
2022-08-03T05:21:51.800Z,36.33
2022-08-03T05:22:32.237Z,35.97
2022-08-03T05:23:32.128Z,36.82
2022-08-03T05:24:32.139Z,41.59
2022-08-03T05:25:32.268Z,44.16
2022-08-03T05:26:32.207Z,44.65
2022-08-03T05:27:32.090Z,50.65
2022-08-03T05:28:32.115Z,51.5
2022-08-03T05:29:32.099Z,50.65
2022-08-03T05:30:34.388Z,49.79
2022-08-03T05:31:32.170Z,48.56
2022-08-03T05:32:32.157Z,46.36
2022-08-03T05:33:32.121Z,49.79
2022-08-03T05:34:32.129Z,48.56
2022-08-03T05:35:57.921Z,48.56
2022-08-03T05:36:32.164Z,44.16
2022-08-03T05:37:32.203Z,45.87
2022-08-03T05:38:35.004Z,44.16
2022-08-03T05:39:32.131Z,42.45
2022-08-03T05:40:32.119Z,44.16
2022-08-03T05:41:36.513Z,45.87
2022-08-03T05:42:32.085Z,46.36
2022-08-03T05:43:32.101Z,51.5
2022-08-03T05:44:32.164Z,50.65
2022-08-03T05:45:32.104Z,48.56
2022-08-03T05:46:32.108Z,49.42
2022-08-03T05:47:32.224Z,62.88
2022-08-03T05:48:32.093Z,70.22
2022-08-03T05:49:32.172Z,72.42
2022-08-03T05:50:32.576Z,75.48
2022-08-03T05:51:32.107Z,68.87
2022-08-03T05:52:32.133Z,73.28
2022-08-03T05:53:32.501Z,78.05
2022-08-03T05:54:56.962Z,84.53
2022-08-03T05:55:32.247Z,85.88
2022-08-03T05:56:32.117Z,97.13
2022-08-03T05:57:32.102Z,87.96
2022-08-03T05:58:32.116Z,87.1
2022-08-03T05:59:38.413Z,102.27
2022-08-03T06:00:32.115Z,82.82
2022-08-03T06:01:32.158Z,76.7
2022-08-03T06:02:32.109Z,72.79
2022-08-03T06:03:32.165Z,76.34
2022-08-03T06:04:32.231Z,72.79
2022-08-03T06:05:33.080Z,79.76
2022-08-03T06:06:32.388Z,80.62
2022-08-03T06:07:32.171Z,82.82
2022-08-03T06:08:32.306Z,80.62
2022-08-03T06:10:36.753Z,75.48
2022-08-03T06:10:37.095Z,80.25
2022-08-03T06:11:32.092Z,74.99
2022-08-03T06:12:32.252Z,79.76
2022-08-03T06:13:32.081Z,83.19
2022-08-03T06:14:32.128Z,93.58
2022-08-03T06:15:32.199Z,103.61
2022-08-03T06:16:32.102Z,94.56
2022-08-03T06:17:37.649Z,72.42
2022-08-03T06:18:32.112Z,65.45
2022-08-03T06:19:32.113Z,62.39
2022-08-03T06:20:32.098Z,66.31
2022-08-03T06:21:32.075Z,64.96
2022-08-03T06:22:32.098Z,79.76
2022-08-03T06:23:53.167Z,98.36
2022-08-03T06:24:32.153Z,105.82
2022-08-03T06:25:32.175Z,97.5
2022-08-03T06:26:32.096Z,74.99
2022-08-03T06:27:36.872Z,68.02
2022-08-03T06:28:53.265Z,69.73
2022-08-03T06:29:32.204Z,72.79
2022-08-03T06:30:32.475Z,74.99
2022-08-03T06:31:32.721Z,64.1
2022-08-03T06:32:32.588Z,60.19
2022-08-03T06:33:48.575Z,59.33
2022-08-03T06:34:35.571Z,60.68
2022-08-03T06:35:32.136Z,62.39
2022-08-03T06:36:32.095Z,60.68
2022-08-03T06:37:32.088Z,59.82
2022-08-03T06:38:32.132Z,55.41
2022-08-03T06:39:32.117Z,52.48
2022-08-03T06:40:32.112Z,51.99
2022-08-03T06:41:38.222Z,49.79
2022-08-03T06:42:32.085Z,53.7
2022-08-03T06:43:35.733Z,51.99
2022-08-03T06:44:32.114Z,56.76
2022-08-03T06:45:32.319Z,59.82
2022-08-03T06:46:32.108Z,68.02
2022-08-03T06:47:32.096Z,74.5
2022-08-03T06:48:32.111Z,79.76
2022-08-03T06:49:32.161Z,79.76
2022-08-03T06:50:32.128Z,80.62
2022-08-03T06:52:06.127Z,85.39
2022-08-03T06:52:37.682Z,89.79
2022-08-03T06:53:32.111Z,87.1
2022-08-03T06:54:33.241Z,90.65
2022-08-03T06:55:32.093Z,96.27
2022-08-03T06:56:32.041Z,95.42
2022-08-03T06:57:32.106Z,90.16
2022-08-03T06:58:32.114Z,84.04
2022-08-03T07:00:07.823Z,74.5
2022-08-03T07:00:32.233Z,77.19
2022-08-03T07:01:32.250Z,92.36
2022-08-03T07:02:32.096Z,105.33
2022-08-03T07:03:32.129Z,84.04
2022-08-03T07:04:32.107Z,67.16
2022-08-03T07:05:32.114Z,62.88
2022-08-03T07:06:32.108Z,74.5
2022-08-03T07:07:32.158Z,79.76
2022-08-03T07:08:33.864Z,74.5
2022-08-03T07:09:32.124Z,69.73
2022-08-03T07:10:32.187Z,76.34
2022-08-03T07:11:32.104Z,76.7
2022-08-03T07:12:32.077Z,78.41
2022-08-03T07:13:32.100Z,81.48
2022-08-03T07:14:32.228Z,84.53
2022-08-03T07:15:54.516Z,88.82
2022-08-03T07:16:32.202Z,91.02
2022-08-03T07:17:32.093Z,77.56
2022-08-03T07:18:32.075Z,66.8
2022-08-03T07:19:32.138Z,60.68
2022-08-03T07:20:32.736Z,59.82
2022-08-03T07:21:32.085Z,59.33
2022-08-03T07:22:32.098Z,60.68
2022-08-03T07:23:32.186Z,69.73
2022-08-03T07:24:32.333Z,80.62
2022-08-03T07:25:32.131Z,80.62
2022-08-03T07:26:32.213Z,80.62
2022-08-03T07:27:32.087Z,95.79
2022-08-03T07:28:32.097Z,95.79
2022-08-03T07:29:34.675Z,87.96
2022-08-03T07:30:32.226Z,112.67
2022-08-03T07:31:34.382Z,143.99
2022-08-03T07:32:32.260Z,115.36
2022-08-03T07:33:32.241Z,133.95
2022-08-03T07:34:32.136Z,127.47
2022-08-03T07:35:32.090Z,145.21
2022-08-03T07:36:33.330Z,304.49
2022-08-03T07:37:32.071Z,373.86
2022-08-03T07:38:32.104Z,583.42
2022-08-03T07:39:32.081Z,592.47
2022-08-03T07:40:32.269Z,560.06
2022-08-03T07:41:32.290Z,509.65
2022-08-03T07:42:32.100Z,549.16
2022-08-03T07:43:32.085Z,548.67
2022-08-03T07:44:32.095Z,550.51
2022-08-03T07:45:32.100Z,554.3
2022-08-03T07:46:32.130Z,558.71
2022-08-03T07:47:35.006Z,560.91
2022-08-03T07:48:32.077Z,571.67
2022-08-03T07:49:32.179Z,606.79
2022-08-03T07:50:32.153Z,411.66
2022-08-03T07:51:32.068Z,296.17
2022-08-03T07:52:32.096Z,583.91
2022-08-03T07:53:32.106Z,471.11
2022-08-03T07:54:33.322Z,716.65
2022-08-03T07:55:32.058Z,335.32
2022-08-03T07:56:32.113Z,241.61
2022-08-03T07:57:32.088Z,340.09
2022-08-03T07:58:32.115Z,456.31
2022-08-03T07:59:49.068Z,280.15
2022-08-03T08:00:32.250Z,255.07
2022-08-03T08:01:32.181Z,254.21
2022-08-03T08:02:32.107Z,267.18
2022-08-03T08:03:41.132Z,239.41
2022-08-03T08:04:32.153Z,223.75
2022-08-03T08:05:32.167Z,198.67
2022-08-03T08:06:32.117Z,172.61
2022-08-03T08:07:32.122Z,184.36
2022-08-03T08:08:32.131Z,212.98
2022-08-03T08:09:32.089Z,203.81
2022-08-03T08:10:32.145Z,196.84
2022-08-03T08:11:33.983Z,241.98
2022-08-03T08:12:32.102Z,210.78
2022-08-03T08:13:32.203Z,261.55
2022-08-03T08:14:32.085Z,308.78
2022-08-03T08:15:32.149Z,221.67
2022-08-03T08:16:32.092Z,251.52
2022-08-03T08:17:32.078Z,190.84
2022-08-03T08:18:32.119Z,180.81
2022-08-03T08:19:32.082Z,200.39
2022-08-03T08:20:32.306Z,161.36
2022-08-03T08:21:53.723Z,159.16
2022-08-03T08:22:32.165Z,154.39
2022-08-03T08:23:44.808Z,143.99
2022-08-03T08:24:32.185Z,134.81
2022-08-03T08:25:32.221Z,130.9
2022-08-03T08:26:32.068Z,123.56
2022-08-03T08:28:29.926Z,118.78
2022-08-03T08:28:33.685Z,115.73
2022-08-03T08:29:32.468Z,110.59
2022-08-03T08:30:32.097Z,109.24
2022-08-03T08:31:32.090Z,107.9
2022-08-03T08:32:32.101Z,103.13
2022-08-03T08:33:48.320Z,109.73
2022-08-03T08:34:32.382Z,114.51
2022-08-03T08:35:32.108Z,116.22
2022-08-03T08:36:32.086Z,120.5
2022-08-03T08:37:32.076Z,125.76
2022-08-03T08:38:32.076Z,124.9
2022-08-03T08:39:32.138Z,140.44
2022-08-03T08:40:32.127Z,150.96
2022-08-03T08:41:32.443Z,149.12
2022-08-03T08:42:32.157Z,156.95
2022-08-03T08:43:32.081Z,159.53
2022-08-03T08:44:32.239Z,170.05
2022-08-03T08:45:32.113Z,158.67
2022-08-03T08:46:32.138Z,144.85
2022-08-03T08:47:51.000Z,145.7
2022-08-03T08:48:32.120Z,160.51
2022-08-03T08:49:32.145Z,158.67
2022-08-03T08:50:32.105Z,153.04
2022-08-03T08:51:54.396Z,148.76
2022-08-03T08:52:32.328Z,143.99
2022-08-03T08:53:32.104Z,153.9
2022-08-03T08:54:32.091Z,147.9
2022-08-03T08:55:58.390Z,133.59
2022-08-03T08:56:32.160Z,114.87
2022-08-03T08:58:32.083Z,108.39
2022-08-03T08:59:49.050Z,110.96
2022-08-03T09:00:32.168Z,105.82
2022-08-03T09:01:33.100Z,111.82
2022-08-03T09:02:33.333Z,117.93
2022-08-03T09:03:32.070Z,119.27
2022-08-03T09:04:32.093Z,106.19
2022-08-03T09:05:54.923Z,127.47
2022-08-03T09:06:32.196Z,249.44
2022-08-03T09:07:32.301Z,278.44
2022-08-03T09:08:32.099Z,112.67
2022-08-03T09:10:11.838Z,96.65
2022-08-03T09:10:32.169Z,108.88
2022-08-03T09:11:51.752Z,60.19
2022-08-03T09:12:41.397Z,211.15
2022-08-03T09:13:32.080Z,472.34
2022-08-03T09:14:37.055Z,209.44
2022-08-03T09:15:32.126Z,201.61
2022-08-03T09:16:32.073Z,740.87
2022-08-03T09:17:32.195Z,744.41
2022-08-03T09:18:32.450Z,218.12
2022-08-03T09:19:32.067Z,213.84
2022-08-03T09:20:32.113Z,227.3
2022-08-03T09:21:33.315Z,316.24
2022-08-03T09:22:32.084Z,172.98
2022-08-03T09:23:59.659Z,120.13
2022-08-03T09:24:41.151Z,225.1
2022-08-03T09:25:32.092Z,76.7
2022-08-03T09:26:32.190Z,78.9
2022-08-03T09:27:32.158Z,173.84
2022-08-03T09:28:59.439Z,79.76
2022-08-03T09:29:32.164Z,139.58
2022-08-03T09:30:34.560Z,91.02
2022-08-03T09:31:32.090Z,70.71
2022-08-03T09:32:32.908Z,75.48
2022-08-03T09:33:36.025Z,61.53
2022-08-03T09:34:32.304Z,65.94
2022-08-03T09:35:53.567Z,130.04
2022-08-03T09:36:32.131Z,113.16
2022-08-03T09:38:11.902Z,93.58
2022-08-03T09:38:32.151Z,241.98
2022-08-03T09:39:41.802Z,57.25
2022-08-03T09:40:32.095Z,348.78
2022-08-03T09:41:32.086Z,86.73
2022-08-03T09:42:32.088Z,61.53
2022-08-03T09:43:32.132Z,57.62
2022-08-03T09:44:32.164Z,131.39
2022-08-03T09:45:32.082Z,101.41
2022-08-03T09:46:32.052Z,225.1
2022-08-03T09:47:32.082Z,126.12
2022-08-03T09:48:32.107Z,96.27
2022-08-03T09:49:32.284Z,90.65
2022-08-03T09:50:32.093Z,157.44
2022-08-03T09:51:33.190Z,137.02
2022-08-03T09:52:49.141Z,206.01
2022-08-03T09:53:32.386Z,395.64
2022-08-03T09:54:32.187Z,91.02
2022-08-03T09:56:35.167Z,94.93
2022-08-03T09:56:36.036Z,105.33
2022-08-03T09:57:32.086Z,143.99
2022-08-03T09:58:32.086Z,317.46
2022-08-03T09:59:32.086Z,350.49
2022-08-03T10:00:32.406Z,115.36
2022-08-03T10:01:32.158Z,241.61
2022-08-03T10:02:32.056Z,195.12
2022-08-03T10:03:32.101Z,146.19
2022-08-03T10:04:32.138Z,181.67
2022-08-03T10:05:32.141Z,180.81
2022-08-03T10:06:32.150Z,200.75
2022-08-03T10:07:32.111Z,212.13
2022-08-03T10:08:32.217Z,222.53
2022-08-03T10:09:32.082Z,200.75
2022-08-03T10:10:32.421Z,194.27
2022-08-03T10:11:32.139Z,179.1
2022-08-03T10:12:32.090Z,175.19
2022-08-03T10:13:32.264Z,176.9
2022-08-03T10:14:32.059Z,159.16
2022-08-03T10:16:25.277Z,168.21
2022-08-03T10:16:32.116Z,165.64
2022-08-03T10:17:32.104Z,174.33
2022-08-03T10:18:32.130Z,173.47
2022-08-03T10:19:32.202Z,176.9
2022-08-03T10:20:32.132Z,189.49
2022-08-03T10:21:32.109Z,196.84
2022-08-03T10:22:32.093Z,202.1
2022-08-03T10:23:34.071Z,206.38
2022-08-03T10:24:32.218Z,212.98
2022-08-03T10:25:32.977Z,206.38
2022-08-03T10:26:33.051Z,213.84
2022-08-03T10:27:32.070Z,207.36
2022-08-03T10:28:32.113Z,204.3
2022-08-03T10:29:32.128Z,191.7
2022-08-03T10:30:32.357Z,196.47
2022-08-03T10:31:32.182Z,189.49
2022-08-03T10:32:32.072Z,180.81
2022-08-03T10:33:50.259Z,175.19
2022-08-03T10:34:32.184Z,185.22
2022-08-03T10:35:32.153Z,181.67
2022-08-03T10:36:32.072Z,176.04
2022-08-03T10:37:32.270Z,204.66
2022-08-03T10:38:32.085Z,204.66
2022-08-03T10:39:32.053Z,190.36
2022-08-03T10:40:48.883Z,197.32
2022-08-03T10:41:32.278Z,206.38
2022-08-03T10:42:32.183Z,192.56
2022-08-03T10:43:32.375Z,198.67
2022-08-03T10:44:32.209Z,212.98
2022-08-03T10:45:32.214Z,209.07
2022-08-03T10:46:32.058Z,212.98
2022-08-03T10:47:32.069Z,190.36
2022-08-03T10:48:32.101Z,204.3
2022-08-03T10:49:34.846Z,202.59
2022-08-03T10:50:32.177Z,219.47
2022-08-03T10:51:32.424Z,170.05
2022-08-03T10:52:36.076Z,173.47
2022-08-03T10:53:32.086Z,163.93
2022-08-03T10:54:32.082Z,213.84
2022-08-03T10:55:32.050Z,136.65
2022-08-03T10:56:41.556Z,155.73
2022-08-03T10:57:32.132Z,153.53
2022-08-03T10:58:32.051Z,153.53
2022-08-03T10:59:32.055Z,183.87
2022-08-03T11:00:32.154Z,185.22
2022-08-03T11:01:32.982Z,188.27
2022-08-03T11:02:32.244Z,184.73
2022-08-03T11:03:32.101Z,176.9
2022-08-03T11:04:32.081Z,196.47
2022-08-03T11:05:32.090Z,183.02
2022-08-03T11:06:37.572Z,194.27
2022-08-03T11:07:32.076Z,218.12
2022-08-03T11:08:32.094Z,202.59
2022-08-03T11:09:32.074Z,207.73
2022-08-03T11:10:32.082Z,201.24
2022-08-03T11:11:32.069Z,177.75
2022-08-03T11:12:32.518Z,180.44
2022-08-03T11:13:32.079Z,177.39
2022-08-03T11:14:32.241Z,208.22
2022-08-03T11:15:32.039Z,233.29
2022-08-03T11:16:32.160Z,162.58
2022-08-03T11:17:32.075Z,135.3
2022-08-03T11:18:32.119Z,124.9
2022-08-03T11:19:32.068Z,110.96
2022-08-03T11:20:32.248Z,112.67
2022-08-03T11:21:32.058Z,110.1
2022-08-03T11:22:32.058Z,97.5
2022-08-03T11:24:02.687Z,82.33
2022-08-03T11:24:32.094Z,75.85
2022-08-03T11:25:53.099Z,69.73
2022-08-03T11:26:32.135Z,68.51
2022-08-03T11:27:32.107Z,68.02
2022-08-03T11:28:32.499Z,65.45
2022-08-03T11:29:32.098Z,61.17
2022-08-03T11:30:32.062Z,64.1
2022-08-03T11:31:49.262Z,66.31
2022-08-03T11:32:32.099Z,63.24
2022-08-03T11:33:32.094Z,60.68
2022-08-03T11:34:32.074Z,58.48
2022-08-03T11:35:32.060Z,49.42
2022-08-03T11:36:32.745Z,54.19
2022-08-03T11:37:33.456Z,58.97
2022-08-03T11:38:32.423Z,71.56
2022-08-03T11:39:32.430Z,80.62
2022-08-03T11:40:32.213Z,85.39
2022-08-03T11:41:32.084Z,94.93
2022-08-03T11:42:32.079Z,106.19
2022-08-03T11:43:32.172Z,114.87
2022-08-03T11:44:32.049Z,127.96
2022-08-03T11:45:32.157Z,129.19
2022-08-03T11:46:32.088Z,130.04
2022-08-03T11:47:32.154Z,130.53
2022-08-03T11:48:32.065Z,148.27
2022-08-03T11:49:32.126Z,143.99
2022-08-03T11:50:32.064Z,156.95
2022-08-03T11:51:32.141Z,213.35
2022-08-03T11:52:32.069Z,308.41
2022-08-03T11:53:32.089Z,253.24
2022-08-03T11:54:32.143Z,133.59
2022-08-03T11:55:32.269Z,147.41
2022-08-03T11:56:32.056Z,280.64
2022-08-03T11:59:02.659Z,238.07
2022-08-03T11:59:17.516Z,240.27
2022-08-03T11:59:32.144Z,189.13
2022-08-03T12:00:32.089Z,184.36
2022-08-03T12:01:32.449Z,217.27
2022-08-03T12:02:32.582Z,177.75
2022-08-03T12:03:32.157Z,135.67
2022-08-03T12:04:32.090Z,108.39
2022-08-03T12:05:32.053Z,101.9
2022-08-03T12:06:32.059Z,101.41
2022-08-03T12:08:04.372Z,94.56
2022-08-03T12:08:32.447Z,92.73
2022-08-03T12:09:32.038Z,97.13
2022-08-03T12:10:32.029Z,100.19
2022-08-03T12:11:32.170Z,166.13
2022-08-03T12:12:32.073Z,109.24
2022-08-03T12:14:10.711Z,189.13
2022-08-03T12:14:50.666Z,148.27
2022-08-03T12:15:32.121Z,137.51
2022-08-03T12:16:32.092Z,191.21
2022-08-03T12:17:32.077Z,131.88
2022-08-03T12:18:32.094Z,126.12
2022-08-03T12:19:32.341Z,143.5
2022-08-03T12:20:35.140Z,179.95
2022-08-03T12:21:32.070Z,191.21
2022-08-03T12:22:32.076Z,126.12
2022-08-03T12:23:36.030Z,136.65
2022-08-03T12:24:32.086Z,169.56
2022-08-03T12:25:39.485Z,611.19
2022-08-03T12:26:32.112Z,217.27
2022-08-03T12:27:32.064Z,740.5
2022-08-03T12:28:37.774Z,674.07
2022-08-03T12:29:32.232Z,662.33
2022-08-03T12:30:32.054Z,407.74
2022-08-03T12:31:32.128Z,305.84
2022-08-03T12:32:32.061Z,355.26
2022-08-03T12:33:32.080Z,147.9
2022-08-03T12:34:32.077Z,797.26
2022-08-03T12:35:32.071Z,174.33
2022-08-03T12:36:32.324Z,672.36
2022-08-03T12:37:32.522Z,354.78
2022-08-03T12:38:32.056Z,415.08
2022-08-03T12:39:32.213Z,245.04
2022-08-03T12:40:32.158Z,681.9
2022-08-03T12:41:34.177Z,681.9
2022-08-03T12:42:32.073Z,677.62
2022-08-03T12:43:36.649Z,681.9
2022-08-03T12:44:32.114Z,675.41
2022-08-03T12:45:32.098Z,672.36
2022-08-03T12:46:32.089Z,670.16
2022-08-03T12:47:32.059Z,674.56
2022-08-03T12:48:32.077Z,689.73
2022-08-03T12:49:32.164Z,722.27
2022-08-03T12:50:32.202Z,712.73
2022-08-03T12:51:32.364Z,475.89
2022-08-03T12:52:33.521Z,643.24
2022-08-03T12:53:32.164Z,694.87
2022-08-03T12:54:32.069Z,502.68
2022-08-03T12:55:32.059Z,385.11
2022-08-03T12:56:32.280Z,63.24
2022-08-03T12:57:32.074Z,50.28
2022-08-03T12:58:32.063Z,62.88
2022-08-03T12:59:34.627Z,134.81
2022-08-03T13:00:34.539Z,60.19
2022-08-03T13:01:32.143Z,56.76
2022-08-03T13:02:32.126Z,88.45
2022-08-03T13:03:39.588Z,86.73
2022-08-03T13:04:33.642Z,73.65
2022-08-03T13:05:32.137Z,94.07
2022-08-03T13:06:32.081Z,100.56
2022-08-03T13:07:34.028Z,87.1
2022-08-03T13:08:32.085Z,93.58
2022-08-03T13:09:32.246Z,108.88
2022-08-03T13:10:32.070Z,117.44
2022-08-03T13:11:57.660Z,147.9
2022-08-03T13:12:32.112Z,494.97